createdAt,value
2023-03-21T00:00:28.896Z,8.12
2023-03-21T00:02:55.448Z,7.91
2023-03-21T00:05:22.449Z,7.90
2023-03-21T00:07:49.030Z,7.86
2023-03-21T00:10:23.910Z,7.80
2023-03-21T00:12:58.583Z,7.78
2023-03-21T00:18:13.655Z,7.67
2023-03-21T00:20:40.084Z,7.81
2023-03-21T00:23:06.526Z,7.86
2023-03-21T00:25:33.102Z,7.69
2023-03-21T00:28:08.059Z,7.65
2023-03-21T00:30:35.358Z,7.58
2023-03-21T00:33:08.946Z,7.60
2023-03-21T00:36:06.108Z,7.58
2023-03-21T00:38:31.241Z,7.43
2023-03-21T00:41:01.958Z,7.47
2023-03-21T00:43:32.796Z,7.57
2023-03-21T00:45:59.824Z,7.66
2023-03-21T00:48:27.277Z,7.69
2023-03-21T00:50:57.149Z,7.59
2023-03-21T00:53:24.168Z,7.57
2023-03-21T00:55:51.653Z,7.57
2023-03-21T00:58:18.455Z,7.52
2023-03-21T01:00:47.048Z,7.52
2023-03-21T01:03:24.308Z,7.55
2023-03-21T01:06:07.367Z,7.62
2023-03-21T01:08:51.256Z,7.47
2023-03-21T01:11:24.946Z,7.43
2023-03-21T01:13:58.004Z,7.52
2023-03-21T01:16:31.562Z,7.49
2023-03-21T01:18:58.235Z,7.47
2023-03-21T01:21:24.706Z,7.49
2023-03-21T01:23:51.174Z,7.46
2023-03-21T01:26:18.210Z,7.33
2023-03-21T01:28:45.405Z,7.33
2023-03-21T01:31:13.816Z,7.50
2023-03-21T01:33:41.246Z,7.58
2023-03-21T01:36:13.249Z,7.59
2023-03-21T01:38:41.559Z,7.46
2023-03-21T01:41:18.759Z,7.36
2023-03-21T01:43:46.141Z,7.29
2023-03-21T01:46:37.274Z,7.16
2023-03-21T01:49:26.061Z,7.04
2023-03-21T01:52:01.110Z,7.00
2023-03-21T01:54:34.254Z,6.97
2023-03-21T01:57:03.687Z,7.03
2023-03-21T01:59:40.773Z,7.26
2023-03-21T02:02:12.328Z,7.35
2023-03-21T02:04:39.187Z,7.29
2023-03-21T02:07:16.753Z,7.17
2023-03-21T02:09:47.461Z,7.12
2023-03-21T02:12:16.149Z,6.98
2023-03-21T02:14:43.084Z,6.95
2023-03-21T02:17:39.152Z,7.04
2023-03-21T02:20:42.117Z,7.16
2023-03-21T02:23:28.728Z,7.16
2023-03-21T02:26:40.864Z,7.14
2023-03-21T02:29:40.854Z,7.26
2023-03-21T02:32:28.393Z,7.29
2023-03-21T02:35:24.632Z,7.32
2023-03-21T02:38:00.688Z,7.33
2023-03-21T02:40:45.381Z,7.27
2023-03-21T02:43:24.350Z,7.02
2023-03-21T02:45:57.955Z,6.93
2023-03-21T02:48:52.771Z,6.83
2023-03-21T02:51:23.261Z,6.77
2023-03-21T02:54:22.007Z,6.69
2023-03-21T02:56:43.102Z,6.49
2023-03-21T02:59:10.439Z,6.36
2023-03-21T03:01:36.926Z,6.29
2023-03-21T03:04:03.452Z,6.27
2023-03-21T03:06:48.700Z,6.27
2023-03-21T03:09:30.763Z,6.25
2023-03-21T03:12:12.462Z,6.22
2023-03-21T03:15:03.585Z,6.13
2023-03-21T03:17:51.918Z,6.32
2023-03-21T03:20:55.853Z,6.33
2023-03-21T03:23:41.986Z,6.39
2023-03-21T03:26:16.206Z,6.45
2023-03-21T03:28:48.527Z,6.39
2023-03-21T03:31:21.810Z,6.49
2023-03-21T03:33:52.130Z,6.57
2023-03-21T03:36:31.727Z,6.56
2023-03-21T03:39:04.353Z,6.36
2023-03-21T03:42:00.860Z,6.18
2023-03-21T03:44:19.758Z,6.16
2023-03-21T03:47:08.480Z,6.13
2023-03-21T03:50:03.299Z,6.15
2023-03-21T03:52:40.043Z,5.95
2023-03-21T03:55:13.266Z,5.79
2023-03-21T03:57:40.154Z,5.75
2023-03-21T04:00:13.207Z,5.71
2023-03-21T04:02:39.654Z,5.66
2023-03-21T04:05:06.500Z,5.68
2023-03-21T04:07:32.988Z,5.92
2023-03-21T04:09:59.731Z,6.06
2023-03-21T04:12:26.292Z,6.05
2023-03-21T04:14:53.341Z,6.09
2023-03-21T04:17:21.456Z,6.10
2023-03-21T04:19:47.933Z,6.19
2023-03-21T04:22:14.375Z,6.13
2023-03-21T04:24:41.292Z,6.14
2023-03-21T04:27:07.736Z,6.09
2023-03-21T04:29:34.201Z,6.16
2023-03-21T04:32:01.384Z,6.10
2023-03-21T04:34:28.865Z,5.95
2023-03-21T04:36:55.903Z,5.98
2023-03-21T04:39:24.474Z,6.07
2023-03-21T04:41:51.099Z,6.01
2023-03-21T04:44:18.381Z,5.96
2023-03-21T04:46:44.849Z,5.95
2023-03-21T04:49:11.414Z,5.93
2023-03-21T04:51:38.835Z,5.93
2023-03-21T04:54:05.900Z,5.99
2023-03-21T04:56:33.838Z,6.07
2023-03-21T04:59:03.452Z,6.14
2023-03-21T05:01:30.823Z,6.20
2023-03-21T05:04:01.689Z,6.17
2023-03-21T05:06:28.458Z,6.05
2023-03-21T05:08:59.983Z,5.84
2023-03-21T05:11:27.720Z,5.78
2023-03-21T05:13:56.293Z,5.91
2023-03-21T05:16:26.820Z,6.02
2023-03-21T05:18:54.807Z,6.01
2023-03-21T05:21:22.844Z,5.84
2023-03-21T05:23:55.459Z,5.84
2023-03-21T05:26:23.159Z,5.79
2023-03-21T05:28:50.138Z,5.76
2023-03-21T05:31:18.402Z,5.71
2023-03-21T05:33:51.141Z,5.61
2023-03-21T05:36:17.651Z,5.67
2023-03-21T05:38:46.609Z,5.69
2023-03-21T05:41:14.207Z,5.74
2023-03-21T05:43:41.058Z,5.69
2023-03-21T05:46:08.172Z,5.72
2023-03-21T05:48:35.649Z,5.77
2023-03-21T05:51:05.989Z,5.84
2023-03-21T05:53:32.499Z,5.92
2023-03-21T05:55:59.027Z,5.99
2023-03-21T05:58:25.818Z,6.00
2023-03-21T06:00:52.257Z,6.12
2023-03-21T06:03:18.791Z,6.09
2023-03-21T06:05:45.268Z,5.94
2023-03-21T06:08:11.751Z,5.86
2023-03-21T06:10:38.254Z,5.89
2023-03-21T06:13:04.955Z,5.93
2023-03-21T06:15:31.610Z,5.94
2023-03-21T06:17:58.083Z,5.97
2023-03-21T06:20:24.515Z,6.06
2023-03-21T06:22:51.025Z,6.23
2023-03-21T06:25:17.531Z,6.40
2023-03-21T06:27:44.148Z,6.48
2023-03-21T06:30:11.204Z,6.48
2023-03-21T06:32:37.761Z,6.58
2023-03-21T06:35:04.963Z,6.64
2023-03-21T06:37:31.554Z,6.69
2023-03-21T06:39:58.031Z,6.78
2023-03-21T06:42:24.689Z,6.78
2023-03-21T06:44:51.196Z,6.90
2023-03-21T06:47:17.721Z,7.03
2023-03-21T06:49:44.681Z,7.16
2023-03-21T06:52:11.539Z,7.30
2023-03-21T06:54:38.137Z,7.41
2023-03-21T06:57:05.626Z,7.31
2023-03-21T06:59:32.091Z,7.52
2023-03-21T07:01:58.962Z,7.68
2023-03-21T07:04:27.019Z,7.73
2023-03-21T07:06:53.912Z,7.88
2023-03-21T07:09:24.439Z,8.03
2023-03-21T07:11:53.574Z,8.21
2023-03-21T07:14:20.358Z,8.25
2023-03-21T07:16:47.216Z,8.36
2023-03-21T07:19:14.139Z,8.45
2023-03-21T07:21:40.976Z,8.47
2023-03-21T07:24:07.981Z,8.60
2023-03-21T07:26:34.407Z,8.74
2023-03-21T07:29:00.903Z,8.83
2023-03-21T07:31:27.501Z,8.95
2023-03-21T07:33:53.998Z,9.21
2023-03-21T07:36:21.658Z,9.33
2023-03-21T07:38:48.208Z,9.32
2023-03-21T07:43:46.076Z,9.41
2023-03-21T07:46:12.729Z,9.47
2023-03-21T07:48:39.259Z,9.62
2023-03-21T07:51:06.572Z,9.81
2023-03-21T07:53:33.207Z,9.90
2023-03-21T07:55:59.679Z,9.89
2023-03-21T07:58:27.183Z,9.94
2023-03-21T08:00:53.969Z,10.04
2023-03-21T08:03:20.453Z,10.19
2023-03-21T08:05:47.333Z,10.29
2023-03-21T08:08:13.909Z,10.43
2023-03-21T08:10:43.255Z,10.48
2023-03-21T08:13:09.998Z,10.51
2023-03-21T08:15:37.614Z,10.56
2023-03-21T08:18:04.292Z,10.72
2023-03-21T08:20:30.971Z,10.74
2023-03-21T08:22:57.502Z,10.83
2023-03-21T08:25:24.003Z,10.96
2023-03-21T08:27:51.550Z,11.15
2023-03-21T08:30:21.943Z,11.21
2023-03-21T08:32:49.365Z,11.14
2023-03-21T08:35:17.842Z,11.14
2023-03-21T08:37:44.914Z,11.32
2023-03-21T08:40:14.242Z,11.52
2023-03-21T08:42:41.428Z,11.63
2023-03-21T08:45:09.195Z,11.74
2023-03-21T08:47:37.069Z,11.69
2023-03-21T08:50:06.820Z,11.81
2023-03-21T08:52:33.989Z,11.84
2023-03-21T08:55:02.148Z,11.87
2023-03-21T08:57:29.569Z,11.98
2023-03-21T08:59:56.437Z,12.14
2023-03-21T09:02:23.021Z,12.20
2023-03-21T09:04:49.778Z,12.26
2023-03-21T09:07:18.070Z,12.26
2023-03-21T09:09:45.941Z,12.35
2023-03-21T09:12:14.213Z,12.37
2023-03-21T09:14:41.197Z,12.63
2023-03-21T09:17:07.788Z,12.84
2023-03-21T09:19:34.888Z,12.83
2023-03-21T09:22:03.564Z,12.90
2023-03-21T09:24:30.639Z,13.03
2023-03-21T09:26:58.079Z,13.17
2023-03-21T09:29:25.062Z,13.27
2023-03-21T09:31:53.516Z,13.23
2023-03-21T09:34:20.129Z,13.39
2023-03-21T09:36:48.450Z,13.57
2023-03-21T09:39:16.378Z,13.45
2023-03-21T09:42:17.672Z,13.56
2023-03-21T09:44:52.738Z,13.57
2023-03-21T09:47:34.997Z,13.70
2023-03-21T09:50:14.106Z,13.80
2023-03-21T09:52:48.205Z,13.99
2023-03-21T09:55:19.172Z,14.21
2023-03-21T09:58:12.263Z,14.45
2023-03-21T10:00:42.081Z,14.48
2023-03-21T10:03:26.322Z,14.57
2023-03-21T10:05:58.749Z,14.72
2023-03-21T10:08:32.039Z,14.75
2023-03-21T10:11:05.214Z,14.75
2023-03-21T10:13:41.617Z,14.88
2023-03-21T10:16:16.014Z,15.02
2023-03-21T10:18:44.095Z,15.05
2023-03-21T10:21:47.437Z,15.15
2023-03-21T10:24:17.386Z,15.31
2023-03-21T10:26:45.898Z,15.31
2023-03-21T10:29:18.682Z,15.64
2023-03-21T10:31:47.337Z,15.84
2023-03-21T10:34:26.153Z,15.52
2023-03-21T10:36:53.103Z,15.76
2023-03-21T10:39:28.024Z,15.67
2023-03-21T10:41:54.791Z,15.72
2023-03-21T10:44:21.424Z,15.88
2023-03-21T10:46:57.641Z,16.18
2023-03-21T10:49:26.686Z,16.16
2023-03-21T10:51:59.620Z,16.16
2023-03-21T10:54:30.244Z,16.17
2023-03-21T10:57:06.024Z,16.38
2023-03-21T10:59:42.945Z,16.37
2023-03-21T11:02:19.589Z,16.45
2023-03-21T11:04:46.406Z,16.37
2023-03-21T11:07:15.219Z,16.40
2023-03-21T11:09:53.799Z,16.59
2023-03-21T11:12:34.812Z,16.65
2023-03-21T11:15:27.237Z,16.78
2023-03-21T11:17:53.741Z,16.87
2023-03-21T11:20:21.170Z,16.84
2023-03-21T11:22:49.364Z,16.67
2023-03-21T11:25:41.185Z,16.60
2023-03-21T11:28:24.070Z,16.60
2023-03-21T11:31:02.785Z,16.76
2023-03-21T11:33:44.341Z,16.85
2023-03-21T11:36:16.876Z,17.08
2023-03-21T11:38:43.470Z,17.17
2023-03-21T11:41:23.003Z,17.01
2023-03-21T11:43:53.427Z,17.00
2023-03-21T11:46:25.616Z,17.17
2023-03-21T11:48:52.949Z,17.18
2023-03-21T11:51:24.615Z,17.05
2023-03-21T11:54:09.385Z,16.85
2023-03-21T11:56:42.628Z,17.03
2023-03-21T11:59:39.523Z,17.10
2023-03-21T12:02:43.631Z,16.86
2023-03-21T12:05:21.479Z,16.91
2023-03-21T12:07:47.908Z,16.87
2023-03-21T12:10:23.302Z,16.89
2023-03-21T12:12:58.852Z,16.99
2023-03-21T12:15:35.818Z,17.24
2023-03-21T12:18:11.340Z,17.49
2023-03-21T12:20:54.492Z,17.34
2023-03-21T12:23:40.042Z,17.29
2023-03-21T12:26:28.920Z,17.28
2023-03-21T12:29:12.082Z,17.43
2023-03-21T12:32:04.735Z,17.69
2023-03-21T12:34:40.659Z,17.97
2023-03-21T12:37:20.789Z,17.92
2023-03-21T12:39:49.029Z,17.90
2023-03-21T12:42:24.451Z,17.61
2023-03-21T12:45:06.053Z,17.53
2023-03-21T12:47:35.733Z,17.60
2023-03-21T12:50:08.268Z,17.53
2023-03-21T12:52:41.671Z,17.44
2023-03-21T12:55:17.779Z,17.24
2023-03-21T12:58:00.462Z,17.34
2023-03-21T13:00:43.417Z,17.61
2023-03-21T13:03:27.646Z,17.93
2023-03-21T13:06:09.234Z,17.95
2023-03-21T13:08:38.251Z,17.89
2023-03-21T13:11:07.553Z,17.90
2023-03-21T13:13:39.887Z,17.95
2023-03-21T13:16:06.569Z,17.91
2023-03-21T13:18:48.812Z,17.89
2023-03-21T13:21:18.239Z,17.84
2023-03-21T13:24:01.331Z,17.85
2023-03-21T13:26:38.914Z,17.98
2023-03-21T13:29:32.702Z,18.03
2023-03-21T13:32:30.832Z,17.92
2023-03-21T13:35:17.292Z,17.78
2023-03-21T13:37:52.684Z,17.78
2023-03-21T13:40:35.122Z,17.89
2023-03-21T13:43:03.688Z,17.70
2023-03-21T13:45:45.419Z,17.61
2023-03-21T13:48:30.138Z,17.88
2023-03-21T13:51:02.218Z,18.01
2023-03-21T13:54:00.514Z,18.02
2023-03-21T13:56:27.274Z,17.97
2023-03-21T13:58:58.698Z,17.95
2023-03-21T14:01:48.400Z,17.87
2023-03-21T14:04:19.226Z,18.00
2023-03-21T14:06:54.108Z,17.86
2023-03-21T14:09:40.595Z,17.72
2023-03-21T14:12:21.194Z,17.67
2023-03-21T14:14:52.340Z,17.75
2023-03-21T14:17:27.873Z,17.96
2023-03-21T14:19:56.702Z,18.19
2023-03-21T14:22:23.681Z,18.15
2023-03-21T14:25:01.314Z,18.08
2023-03-21T14:27:33.981Z,18.10
2023-03-21T14:30:01.974Z,18.14
2023-03-21T14:32:30.773Z,18.07
2023-03-21T14:35:01.068Z,18.07
2023-03-21T14:37:30.315Z,17.99
2023-03-21T14:40:11.404Z,17.83
2023-03-21T14:42:38.257Z,17.71
2023-03-21T14:45:15.981Z,17.69
2023-03-21T14:48:04.085Z,17.85
2023-03-21T14:50:39.558Z,17.91
2023-03-21T14:53:11.808Z,18.00
2023-03-21T14:55:47.824Z,17.98
2023-03-21T14:58:17.922Z,17.86
2023-03-21T15:00:49.579Z,17.77
2023-03-21T15:03:18.685Z,17.75
2023-03-21T15:05:46.089Z,17.80
2023-03-21T15:08:12.639Z,17.82
2023-03-21T15:10:39.324Z,17.77
2023-03-21T15:13:19.494Z,17.72
2023-03-21T15:15:47.010Z,17.73
2023-03-21T15:18:19.895Z,17.81
2023-03-21T15:20:50.062Z,17.93
2023-03-21T15:23:28.797Z,17.93
2023-03-21T15:25:55.660Z,17.80
2023-03-21T15:28:22.507Z,17.78
2023-03-21T15:30:51.180Z,17.81
2023-03-21T15:33:19.184Z,17.91
2023-03-21T15:35:59.202Z,17.84
2023-03-21T15:38:45.063Z,17.77
2023-03-21T15:41:20.773Z,17.67
2023-03-21T15:43:48.415Z,17.59
2023-03-21T15:46:33.475Z,17.52
2023-03-21T15:49:17.084Z,17.50
2023-03-21T15:51:53.810Z,17.50
2023-03-21T15:54:24.777Z,17.48
2023-03-21T15:56:56.690Z,17.43
2023-03-21T15:59:31.402Z,17.38
2023-03-21T16:01:58.320Z,17.38
2023-03-21T16:04:25.865Z,17.36
2023-03-21T16:06:58.739Z,17.38
2023-03-21T16:09:26.334Z,17.38
2023-03-21T16:11:57.062Z,17.31
2023-03-21T16:14:27.806Z,17.30
2023-03-21T16:16:54.912Z,17.31
2023-03-21T16:19:21.294Z,17.26
2023-03-21T16:21:47.809Z,17.22
2023-03-21T16:24:14.538Z,17.19
2023-03-21T16:26:48.040Z,17.13
2023-03-21T16:29:15.910Z,17.10
2023-03-21T16:31:42.593Z,17.06
2023-03-21T16:34:09.292Z,16.99
2023-03-21T16:36:38.702Z,16.95
2023-03-21T16:39:28.722Z,16.85
2023-03-21T16:41:55.214Z,16.78
2023-03-21T16:44:22.107Z,16.69
2023-03-21T16:46:49.596Z,16.65
2023-03-21T16:49:27.487Z,16.64
2023-03-21T16:51:56.575Z,16.57
2023-03-21T16:54:23.243Z,16.54
2023-03-21T16:56:53.262Z,16.49
2023-03-21T16:59:20.017Z,16.42
2023-03-21T17:01:48.276Z,16.37
2023-03-21T17:04:17.401Z,16.33
2023-03-21T17:06:47.017Z,16.28
2023-03-21T17:09:16.292Z,16.25
2023-03-21T17:11:43.596Z,16.18
2023-03-21T17:14:11.439Z,16.15
2023-03-21T17:16:40.278Z,16.11
2023-03-21T17:19:18.990Z,16.12
2023-03-21T17:22:25.997Z,16.08
2023-03-21T17:24:52.900Z,16.06
2023-03-21T17:27:19.428Z,16.05
2023-03-21T17:29:45.928Z,15.98
2023-03-21T17:32:12.414Z,15.91
2023-03-21T17:34:38.985Z,15.85
2023-03-21T17:37:05.911Z,15.80
2023-03-21T17:39:33.007Z,15.73
2023-03-21T17:41:59.456Z,15.69
2023-03-21T17:44:26.058Z,15.65
2023-03-21T17:46:52.610Z,15.65
2023-03-21T17:49:19.894Z,15.61
2023-03-21T17:51:46.992Z,15.56
2023-03-21T17:54:13.966Z,15.46
2023-03-21T17:56:41.741Z,15.33
2023-03-21T17:59:12.314Z,15.30
2023-03-21T18:01:38.971Z,15.29
2023-03-21T18:04:05.989Z,15.23
2023-03-21T18:06:34.213Z,15.17
2023-03-21T18:09:04.312Z,15.10
2023-03-21T18:11:30.942Z,15.09
2023-03-21T18:14:10.262Z,15.08
2023-03-21T18:16:42.331Z,15.07
2023-03-21T18:19:10.980Z,15.04
2023-03-21T18:21:40.497Z,15.00
2023-03-21T18:24:07.523Z,15.00
2023-03-21T18:26:34.151Z,14.99
2023-03-21T18:30:03.827Z,14.97
2023-03-21T18:32:02.486Z,14.94
2023-03-21T18:34:32.035Z,14.88
2023-03-21T18:36:58.495Z,14.83
2023-03-21T18:39:25.198Z,14.79
2023-03-21T18:41:52.530Z,14.70
2023-03-21T18:44:19.689Z,14.62
2023-03-21T18:46:48.038Z,14.61
2023-03-21T18:49:58.947Z,14.55
2023-03-21T18:52:02.470Z,14.43
2023-03-21T18:54:28.895Z,14.40
2023-03-21T18:59:42.495Z,14.43
2023-03-21T19:02:11.579Z,14.45
2023-03-21T19:04:38.380Z,14.42
2023-03-21T19:07:05.658Z,14.40
2023-03-21T19:09:54.802Z,14.39
2023-03-21T19:12:20.114Z,14.36
2023-03-21T19:14:46.577Z,14.33
2023-03-21T19:20:00.006Z,14.02
2023-03-21T19:22:29.331Z,14.07
2023-03-21T19:24:56.044Z,14.04
2023-03-21T19:27:22.859Z,13.97
2023-03-21T19:30:06.553Z,13.96
2023-03-21T19:32:35.991Z,13.98
2023-03-21T19:35:02.794Z,13.98
2023-03-21T19:37:29.355Z,13.80
2023-03-21T19:39:56.694Z,13.81
2023-03-21T19:42:28.544Z,13.84
2023-03-21T19:44:57.000Z,13.81
2023-03-21T19:47:23.409Z,13.71
2023-03-21T19:50:43.991Z,13.63
2023-03-21T19:52:38.110Z,13.65
2023-03-21T19:55:05.189Z,13.63
2023-03-21T19:57:31.808Z,13.70
2023-03-21T19:59:58.287Z,13.80
2023-03-21T20:02:35.541Z,13.88
2023-03-21T20:05:02.338Z,13.88
2023-03-21T20:07:30.599Z,13.86
2023-03-21T20:09:57.531Z,13.74
2023-03-21T20:12:24.108Z,13.65
2023-03-21T20:14:56.020Z,13.44
2023-03-21T20:17:28.036Z,13.30
2023-03-21T20:19:57.850Z,13.31
2023-03-21T20:22:46.008Z,13.22
2023-03-21T20:25:11.572Z,13.19
2023-03-21T20:27:42.400Z,13.22
2023-03-21T20:30:14.999Z,13.30
2023-03-21T20:32:44.186Z,13.26
2023-03-21T20:35:21.032Z,13.14
2023-03-21T20:37:53.950Z,13.10
2023-03-21T20:40:21.420Z,13.13
2023-03-21T20:42:48.827Z,13.09
2023-03-21T20:45:17.125Z,13.08
2023-03-21T20:47:43.723Z,13.02
2023-03-21T20:50:13.800Z,12.97
2023-03-21T20:53:06.531Z,12.95
2023-03-21T20:55:28.768Z,12.89
2023-03-21T20:57:55.210Z,12.88
2023-03-21T21:00:22.316Z,12.89
2023-03-21T21:02:50.096Z,12.85
2023-03-21T21:05:28.694Z,12.84
2023-03-21T21:07:56.638Z,12.79
2023-03-21T21:10:23.232Z,12.71
2023-03-21T21:12:49.694Z,12.74
2023-03-21T21:15:16.859Z,12.81
2023-03-21T21:18:04.884Z,12.72
2023-03-21T21:20:53.409Z,12.60
2023-03-21T21:23:19.827Z,12.52
2023-03-21T21:25:53.196Z,12.59
2023-03-21T21:28:23.937Z,12.51
2023-03-21T21:31:00.801Z,12.39
2023-03-21T21:33:30.247Z,12.27
2023-03-21T21:35:56.824Z,12.34
2023-03-21T21:38:23.420Z,12.42
2023-03-21T21:40:51.648Z,12.39
2023-03-21T21:43:19.409Z,12.28
2023-03-21T21:45:46.919Z,12.25
2023-03-21T21:48:13.839Z,12.25
2023-03-21T21:50:43.781Z,12.31
2023-03-21T21:53:11.489Z,12.20
2023-03-21T21:55:38.568Z,11.98
2023-03-21T21:58:08.459Z,11.93
2023-03-21T22:00:37.211Z,11.90
2023-03-21T22:03:04.303Z,11.98
2023-03-21T22:05:31.326Z,11.96
2023-03-21T22:07:58.209Z,11.93
2023-03-21T22:10:27.617Z,11.91
2023-03-21T22:12:54.292Z,11.93
2023-03-21T22:15:23.809Z,11.91
2023-03-21T22:17:51.463Z,11.94
2023-03-21T22:20:20.421Z,11.92
2023-03-21T22:22:47.591Z,11.71
2023-03-21T22:25:15.960Z,11.60
2023-03-21T22:27:43.537Z,11.48
2023-03-21T22:30:13.880Z,11.36
2023-03-21T22:32:41.309Z,11.27
2023-03-21T22:35:09.063Z,11.23
2023-03-21T22:37:38.318Z,11.28
2023-03-21T22:40:10.537Z,11.38
2023-03-21T22:42:38.076Z,11.34
2023-03-21T22:45:06.191Z,11.32
2023-03-21T22:47:33.025Z,11.22
2023-03-21T22:49:59.816Z,11.34
2023-03-21T22:52:27.054Z,11.38
2023-03-21T22:54:54.855Z,11.25
2023-03-21T22:57:21.546Z,11.21
2023-03-21T22:59:48.355Z,11.25
2023-03-21T23:02:15.656Z,11.41
2023-03-21T23:04:42.724Z,11.47
2023-03-21T23:07:09.473Z,11.55
2023-03-21T23:09:36.344Z,11.60
2023-03-21T23:12:02.999Z,11.46
2023-03-21T23:14:29.668Z,11.42
2023-03-21T23:17:00.251Z,11.37
2023-03-21T23:19:28.789Z,11.25
2023-03-21T23:21:56.000Z,11.26
2023-03-21T23:24:23.057Z,11.10
2023-03-21T23:26:49.546Z,11.05
2023-03-21T23:29:16.037Z,11.04
2023-03-21T23:31:42.544Z,11.05
2023-03-21T23:34:09.210Z,11.05
2023-03-21T23:36:35.830Z,11.08
2023-03-21T23:39:02.400Z,11.10
2023-03-21T23:41:28.893Z,11.14
2023-03-21T23:43:55.710Z,11.14
2023-03-21T23:46:22.342Z,11.10
2023-03-21T23:48:49.193Z,11.17
2023-03-21T23:51:17.473Z,11.20
2023-03-21T23:53:45.793Z,11.19
2023-03-21T23:56:24.834Z,11.25
2023-03-21T23:58:51.915Z,11.28
